Thunder radar more information blitzortung!


Radar de pluja more information rain snow radar


Visita la nostra xarxa de llocs de meteo:

Template documentation
and downloads

And another site



No particular awareness of the weather is required.    There are no Weather-warnings

Pagina Historial Weather Underground text

Diari Resum Setembre 7, 2017 Unitats:  Mètric    Imperial   Tant
« Previous Dia
SegĂźent Dia »
Diari Setmana Mensual Anual Personalitzada
  Maxima: Minima: Media:
Temperatura: 28.9 °C 16.1 °C 23.5 °C
Punt de rosada: 18.8 °C 8.8 °C 12.7 °C
Humitat: 78 % 37 % 52 %
Wind Speed: 16.7 km/h 0.0 km/h 5.8 km/h
RĂ fegues de vent: 16.7 km/h - -
Vent:- - SSW
Pression baro: 1017.8 hPa 1013.8 hPa -
Precipitacions: 0.0 mm    
Historical Graphs
 
 
Dades de taula per Setembre 7, 2017
Temps Temperatura Punt de rosada Pression baro Vent Wind Speed RĂ fegues de vent Humitat Rainfall Rate (Hourly)
00:04 22.8 °C 18.8 °C 1017.8 hPa Calm     78 % 0.0 mm
00:05 19.0 °C 11.1 °C 1015.8 hPa West 3.2 km/h 4.8 km/h 60 % 0.0 mm
00:15 18.7 °C 10.8 °C 1015.8 hPa WNW 3.2 km/h 6.4 km/h 60 % 0.0 mm
00:25 18.5 °C 10.3 °C 1015.8 hPa WNW 1.6 km/h 8.0 km/h 59 % 0.0 mm
00:35 18.3 °C 10.2 °C 1015.8 hPa NW 1.6 km/h 4.8 km/h 59 % 0.0 mm
00:45 18.2 °C 10.1 °C 1016.8 hPa NNW 3.2 km/h 3.2 km/h 59 % 0.0 mm
00:55 18.0 °C 9.9 °C 1016.8 hPa West 3.2 km/h 4.8 km/h 59 % 0.0 mm
01:05 17.9 °C 9.8 °C 1016.8 hPa West 3.2 km/h 4.8 km/h 59 % 0.0 mm
01:15 17.6 °C 9.5 °C 1016.8 hPa WNW 3.2 km/h 4.8 km/h 59 % 0.0 mm
01:25 17.4 °C 9.3 °C 1015.8 hPa West 3.2 km/h 6.4 km/h 59 % 0.0 mm
01:35 17.2 °C 9.1 °C 1015.8 hPa West 4.8 km/h 4.8 km/h 59 % 0.0 mm
01:45 17.1 °C 9.0 °C 1016.8 hPa WSW 1.6 km/h 6.4 km/h 59 % 0.0 mm
01:55 16.8 °C 9.2 °C 1016.8 hPa WSW 1.6 km/h 3.2 km/h 61 % 0.0 mm
02:05 16.6 °C 9.1 °C 1016.8 hPa WSW 1.6 km/h 6.4 km/h 61 % 0.0 mm
02:15 16.5 °C 8.9 °C 1016.8 hPa SW 1.6 km/h 3.2 km/h 61 % 0.0 mm
02:25 16.3 °C 8.8 °C 1015.8 hPa South 1.6 km/h 3.2 km/h 61 % 0.0 mm
02:35 16.2 °C 8.9 °C 1015.8 hPa SSW 3.2 km/h 4.8 km/h 62 % 0.0 mm
02:45 16.1 °C 8.8 °C 1016.8 hPa Calm   3.2 km/h 62 % 0.0 mm
02:55 16.1 °C 8.8 °C 1016.8 hPa Calm   3.2 km/h 62 % 0.0 mm
03:05 16.2 °C 9.2 °C 1016.8 hPa Calm   4.8 km/h 63 % 0.0 mm
03:15 16.3 °C 9.2 °C 1016.8 hPa SW 1.6 km/h 3.2 km/h 63 % 0.0 mm
03:25 16.4 °C 9.3 °C 1017.8 hPa SW 1.6 km/h 3.2 km/h 63 % 0.0 mm
03:35 16.6 °C 9.5 °C 1017.8 hPa SW 3.2 km/h 6.4 km/h 63 % 0.0 mm
03:45 17.1 °C 9.8 °C 1017.8 hPa SW 3.2 km/h 6.4 km/h 62 % 0.0 mm
03:55 17.7 °C 10.3 °C 1017.8 hPa Calm   6.4 km/h 62 % 0.0 mm
04:05 18.0 °C 10.4 °C 1017.8 hPa WSW 3.2 km/h 4.8 km/h 61 % 0.0 mm
04:15 18.8 °C 10.9 °C 1016.8 hPa SW 3.2 km/h 3.2 km/h 60 % 0.0 mm
04:25 18.8 °C 10.6 °C 1017.8 hPa NNE 4.8 km/h 4.8 km/h 59 % 0.0 mm
04:35 18.7 °C 10.3 °C 1017.8 hPa NE 3.2 km/h 4.8 km/h 58 % 0.0 mm
04:45 19.0 °C 10.0 °C 1017.8 hPa NE 4.8 km/h 6.4 km/h 56 % 0.0 mm
04:55 19.6 °C 10.6 °C 1017.8 hPa NE 1.6 km/h 4.8 km/h 56 % 0.0 mm
05:05 20.4 °C 11.3 °C 1017.8 hPa SW 1.6 km/h 1.6 km/h 56 % 0.0 mm
05:15 20.5 °C 11.2 °C 1017.8 hPa NNW 1.6 km/h 4.8 km/h 55 % 0.0 mm
05:25 20.7 °C 11.1 °C 1016.8 hPa East 1.6 km/h 3.2 km/h 54 % 0.0 mm
05:35 21.4 °C 11.7 °C 1016.8 hPa NNE 3.2 km/h 3.2 km/h 54 % 0.0 mm
05:45 21.0 °C 10.8 °C 1017.8 hPa NW 1.6 km/h 3.2 km/h 52 % 0.0 mm
05:55 21.9 °C 11.9 °C 1017.8 hPa South 1.6 km/h 4.8 km/h 53 % 0.0 mm
06:05 22.0 °C 12.0 °C 1017.8 hPa WNW 3.2 km/h 4.8 km/h 53 % 0.0 mm
11:05 22.2 °C 11.9 °C 1017.8 hPa North 3.9 km/h 3.9 km/h 52 % 0.0 mm
11:10 22.7 °C 12.1 °C 1017.8 hPa ESE 4.7 km/h 4.7 km/h 51 % 0.0 mm
11:15 22.5 °C 11.8 °C 1017.8 hPa NE 7.4 km/h 7.4 km/h 51 % 0.0 mm
11:20 22.7 °C 12.1 °C 1017.8 hPa NW 3.7 km/h 3.7 km/h 51 % 0.0 mm
11:25 22.9 °C 12.2 °C 1017.8 hPa West 3.7 km/h 3.7 km/h 51 % 0.0 mm
11:30 23.3 °C 12.3 °C 1017.8 hPa East 7.4 km/h 7.4 km/h 50 % 0.0 mm
11:35 23.6 °C 12.3 °C 1017.8 hPa NNE 5.6 km/h 5.6 km/h 49 % 0.0 mm
11:40 24.1 °C 12.7 °C 1017.8 hPa NW 3.7 km/h 3.7 km/h 49 % 0.0 mm
11:45 24.5 °C 13.1 °C 1017.8 hPa SW 6.1 km/h 6.1 km/h 49 % 0.0 mm
11:50 24.3 °C 12.9 °C 1017.8 hPa ENE 3.7 km/h 3.7 km/h 49 % 0.0 mm
11:55 24.2 °C 12.8 °C 1017.8 hPa WSW 3.9 km/h 3.9 km/h 49 % 0.0 mm
12:00 24.1 °C 12.4 °C 1017.8 hPa NE 4.2 km/h 4.2 km/h 48 % 0.0 mm
12:05 24.1 °C 12.7 °C 1017.8 hPa SW 3.7 km/h 3.7 km/h 49 % 0.0 mm
12:10 24.4 °C 12.3 °C 1017.8 hPa East 3.7 km/h 3.7 km/h 47 % 0.0 mm
12:15 24.7 °C 13.3 °C 1017.8 hPa WSW 9.3 km/h 9.3 km/h 49 % 0.0 mm
12:20 25.0 °C 12.9 °C 1017.8 hPa West 7.6 km/h 7.6 km/h 47 % 0.0 mm
12:25 25.0 °C 12.9 °C 1016.8 hPa SW 7.9 km/h 7.9 km/h 47 % 0.0 mm
12:30 25.0 °C 12.9 °C 1016.8 hPa WSW 7.4 km/h 7.6 km/h 47 % 0.0 mm
12:35 25.1 °C 12.7 °C 1016.8 hPa South 3.7 km/h 3.9 km/h 46 % 0.0 mm
12:40 25.5 °C 13.1 °C 1015.8 hPa WSW 7.4 km/h 7.4 km/h 46 % 0.0 mm
12:45 25.8 °C 13.3 °C 1015.8 hPa WSW 9.3 km/h 9.3 km/h 46 % 0.0 mm
12:50 25.4 °C 12.6 °C 1015.8 hPa West 11.1 km/h 11.1 km/h 45 % 0.0 mm
12:55 25.6 °C 12.4 °C 1015.8 hPa WSW 9.3 km/h 9.3 km/h 44 % 0.0 mm
13:00 26.1 °C 12.9 °C 1015.8 hPa West 5.8 km/h 5.8 km/h 44 % 0.0 mm
13:05 26.1 °C 12.6 °C 1015.8 hPa South 13.0 km/h 13.0 km/h 43 % 0.0 mm
13:10 25.9 °C 12.3 °C 1015.8 hPa SW 9.3 km/h 9.3 km/h 43 % 0.0 mm
13:15 26.1 °C 12.2 °C 1015.8 hPa South 5.6 km/h 5.6 km/h 42 % 0.0 mm
13:20 26.6 °C 12.6 °C 1015.8 hPa SW 7.4 km/h 7.4 km/h 42 % 0.0 mm
13:25 26.7 °C 12.7 °C 1015.8 hPa WNW 9.5 km/h 9.5 km/h 42 % 0.0 mm
13:30 26.4 °C 12.4 °C 1015.8 hPa SW 6.4 km/h 6.4 km/h 42 % 0.0 mm
13:35 26.5 °C 12.2 °C 1015.8 hPa WSW 9.3 km/h 9.3 km/h 41 % 0.0 mm
13:40 25.8 °C 11.2 °C 1015.8 hPa East 13.0 km/h 13.0 km/h 40 % 0.0 mm
13:45 26.1 °C 11.8 °C 1015.8 hPa North 9.3 km/h 9.3 km/h 41 % 0.0 mm
13:50 26.2 °C 11.9 °C 1015.8 hPa West 9.5 km/h 9.5 km/h 41 % 0.0 mm
13:55 26.3 °C 12.0 °C 1015.8 hPa NW 9.3 km/h 9.3 km/h 41 % 0.0 mm
14:00 26.4 °C 12.1 °C 1015.8 hPa WSW 6.4 km/h 6.4 km/h 41 % 0.0 mm
14:05 26.8 °C 12.4 °C 1015.8 hPa WNW 6.1 km/h 6.1 km/h 41 % 0.0 mm
14:10 27.1 °C 11.9 °C 1015.8 hPa SSE 3.7 km/h 3.7 km/h 39 % 0.0 mm
14:15 27.5 °C 12.3 °C 1015.8 hPa SW 11.1 km/h 11.1 km/h 39 % 0.0 mm
14:20 27.4 °C 12.6 °C 1015.8 hPa SW 3.7 km/h 3.9 km/h 40 % 0.0 mm
14:25 27.4 °C 11.8 °C 1014.8 hPa West 7.4 km/h 7.4 km/h 38 % 0.0 mm
14:30 27.4 °C 12.2 °C 1014.8 hPa WNW 7.4 km/h 7.4 km/h 39 % 0.0 mm
14:35 27.1 °C 11.9 °C 1014.8 hPa East 4.2 km/h 4.2 km/h 39 % 0.0 mm
14:40 27.5 °C 11.9 °C 1014.8 hPa ESE 7.4 km/h 7.4 km/h 38 % 0.0 mm
14:45 27.8 °C 11.8 °C 1014.8 hPa SW 3.7 km/h 3.7 km/h 37 % 0.0 mm
14:50 28.0 °C 12.3 °C 1014.8 hPa SW 5.6 km/h 5.6 km/h 38 % 0.0 mm
14:55 28.6 °C 13.3 °C 1014.8 hPa SW 11.1 km/h 11.1 km/h 39 % 0.0 mm
15:00 28.1 °C 12.4 °C 1014.8 hPa SSW 9.3 km/h 9.3 km/h 38 % 0.0 mm
15:05 28.1 °C 12.8 °C 1014.8 hPa NNE 7.4 km/h 7.4 km/h 39 % 0.0 mm
15:10 27.7 °C 12.5 °C 1014.8 hPa SW 4.7 km/h 4.7 km/h 39 % 0.0 mm
15:15 28.3 °C 13.0 °C 1014.8 hPa SW 5.6 km/h 5.6 km/h 39 % 0.0 mm
15:20 28.9 °C 13.6 °C 1014.8 hPa NW 3.7 km/h 3.7 km/h 39 % 0.0 mm
15:25 28.2 °C 13.3 °C 1013.8 hPa ESE 7.4 km/h 7.4 km/h 40 % 0.0 mm
15:30 28.4 °C 13.5 °C 1013.8 hPa SE 5.0 km/h 5.3 km/h 40 % 0.0 mm
15:35 28.3 °C 13.8 °C 1013.8 hPa SSW 9.3 km/h 9.3 km/h 41 % 0.0 mm
15:40 28.5 °C 13.6 °C 1013.8 hPa SW 7.4 km/h 7.4 km/h 40 % 0.0 mm
15:45 28.8 °C 13.8 °C 1013.8 hPa SSW 7.4 km/h 7.4 km/h 40 % 0.0 mm
15:50 28.7 °C 13.8 °C 1013.8 hPa West 9.3 km/h 9.3 km/h 40 % 0.0 mm
15:55 28.9 °C 13.9 °C 1013.8 hPa SSW 11.1 km/h 11.1 km/h 40 % 0.0 mm
16:00 28.6 °C 13.7 °C 1013.8 hPa SSW 12.6 km/h 12.6 km/h 40 % 0.0 mm
16:05 28.8 °C 13.8 °C 1013.8 hPa SW 13.0 km/h 13.0 km/h 40 % 0.0 mm
16:10 28.2 °C 13.3 °C 1013.8 hPa WSW 16.7 km/h 16.7 km/h 40 % 0.0 mm
16:15 27.8 °C 12.9 °C 1013.8 hPa SSW 14.8 km/h 14.8 km/h 40 % 0.0 mm
16:20 27.9 °C 13.4 °C 1013.8 hPa West 14.5 km/h 14.5 km/h 41 % 0.0 mm
16:25 27.4 °C 13.0 °C 1013.8 hPa SW 16.7 km/h 16.7 km/h 41 % 0.0 mm
16:30 27.5 °C 13.4 °C 1013.8 hPa SW 9.3 km/h 9.3 km/h 42 % 0.0 mm
16:35 27.4 °C 13.3 °C 1013.8 hPa SW 9.0 km/h 9.0 km/h 42 % 0.0 mm
16:40 27.4 °C 13.3 °C 1013.8 hPa SW 9.3 km/h 9.3 km/h 42 % 0.0 mm
16:45 27.9 °C 13.8 °C 1013.8 hPa WSW 9.3 km/h 9.3 km/h 42 % 0.0 mm
16:50 28.0 °C 14.3 °C 1013.8 hPa SW 9.7 km/h 9.7 km/h 43 % 0.0 mm
16:55 27.9 °C 14.2 °C 1013.8 hPa SW 7.9 km/h 7.9 km/h 43 % 0.0 mm
17:00 28.1 °C 14.3 °C 1013.8 hPa SW 7.4 km/h 7.4 km/h 43 % 0.0 mm
17:05 28.0 °C 14.3 °C 1013.8 hPa SSE 11.1 km/h 11.1 km/h 43 % 0.0 mm
17:10 27.5 °C 13.8 °C 1013.8 hPa WSW 14.8 km/h 14.8 km/h 43 % 0.0 mm
17:15 27.2 °C 13.6 °C 1013.8 hPa SW 11.1 km/h 11.1 km/h 43 % 0.0 mm
17:20 27.3 °C 14.0 °C 1013.8 hPa SW 11.1 km/h 11.1 km/h 44 % 0.0 mm
17:25 27.5 °C 14.2 °C 1013.8 hPa South 7.4 km/h 7.4 km/h 44 % 0.0 mm
17:30 27.4 °C 14.1 °C 1013.8 hPa WNW 11.1 km/h 11.1 km/h 44 % 0.0 mm
17:35 27.6 °C 14.2 °C 1013.8 hPa WSW 8.7 km/h 8.7 km/h 44 % 0.0 mm
17:40 27.5 °C 14.2 °C 1013.8 hPa WSW 9.5 km/h 9.5 km/h 44 % 0.0 mm
17:45 27.3 °C 14.0 °C 1013.8 hPa WSW 7.4 km/h 7.4 km/h 44 % 0.0 mm
17:50 27.5 °C 14.2 °C 1013.8 hPa ESE 5.6 km/h 5.6 km/h 44 % 0.0 mm
17:55 27.2 °C 14.2 °C 1013.8 hPa SW 9.3 km/h 9.3 km/h 45 % 0.0 mm
18:00 26.8 °C 14.2 °C 1013.8 hPa WSW 9.3 km/h 9.3 km/h 46 % 0.0 mm
18:05 26.8 °C 14.2 °C 1013.8 hPa SW 9.3 km/h 9.3 km/h 46 % 0.0 mm
18:10 27.1 °C 14.2 °C 1013.8 hPa South 12.6 km/h 12.6 km/h 45 % 0.0 mm
18:15 27.1 °C 14.5 °C 1013.8 hPa South 4.7 km/h 4.7 km/h 46 % 0.0 mm
18:20 26.9 °C 14.6 °C 1013.8 hPa SSW 9.3 km/h 9.3 km/h 47 % 0.0 mm
18:25 26.5 °C 14.3 °C 1013.8 hPa South 11.1 km/h 11.1 km/h 47 % 0.0 mm
18:30 26.3 °C 14.1 °C 1013.8 hPa South 7.4 km/h 7.4 km/h 47 % 0.0 mm
18:35 26.3 °C 14.4 °C 1013.8 hPa WNW 7.4 km/h 7.4 km/h 48 % 0.0 mm
18:40 26.0 °C 14.1 °C 1013.8 hPa WSW 3.7 km/h 3.9 km/h 48 % 0.0 mm
18:45 25.8 °C 14.3 °C 1013.8 hPa NE 3.5 km/h 3.5 km/h 49 % 0.0 mm
18:50 25.4 °C 13.9 °C 1013.8 hPa WSW 3.9 km/h 3.9 km/h 49 % 0.0 mm
18:55 25.5 °C 14.3 °C 1013.8 hPa SW 7.4 km/h 7.4 km/h 50 % 0.0 mm
19:00 25.5 °C 14.3 °C 1013.8 hPa SSW 3.7 km/h 3.9 km/h 50 % 0.0 mm
19:05 25.4 °C 14.2 °C 1013.8 hPa SW 3.7 km/h 3.7 km/h 50 % 0.0 mm
19:10 25.0 °C 14.4 °C 1013.8 hPa NE 5.6 km/h   52 % 0.0 mm
19:15 24.8 °C 14.6 °C 1013.8 hPa ESE 3.7 km/h 3.7 km/h 53 % 0.0 mm
19:20 24.4 °C 15.1 °C 1013.8 hPa ENE 6.4 km/h 6.4 km/h 56 % 0.0 mm
19:25 24.0 °C 15.2 °C 1013.8 hPa East 7.4 km/h 7.4 km/h 58 % 0.0 mm
19:30 23.8 °C 15.8 °C 1013.8 hPa ENE 9.3 km/h 9.3 km/h 61 % 0.0 mm
19:35 23.7 °C 15.7 °C 1013.8 hPa ENE 13.0 km/h 13.0 km/h 61 % 0.0 mm
19:40 23.6 °C 15.6 °C 1013.8 hPa SE 5.6 km/h 5.6 km/h 61 % 0.0 mm
19:45 23.8 °C 15.8 °C 1013.8 hPa South 7.4 km/h 7.4 km/h 61 % 0.0 mm
19:50 23.9 °C 15.1 °C 1013.8 hPa SSW 9.3 km/h 9.3 km/h 58 % 0.0 mm
19:55 23.9 °C 15.1 °C 1013.8 hPa WSW 11.1 km/h 11.1 km/h 58 % 0.0 mm
20:00 23.8 °C 14.8 °C 1013.8 hPa SW 6.1 km/h 6.1 km/h 57 % 0.0 mm
20:05 23.7 °C 14.7 °C 1013.8 hPa SW 9.3 km/h 9.3 km/h 57 % 0.0 mm
20:10 23.4 °C 14.4 °C 1013.8 hPa WSW 7.4 km/h 7.4 km/h 57 % 0.0 mm
20:15 23.2 °C 13.9 °C 1013.8 hPa SW 9.3 km/h 9.3 km/h 56 % 0.0 mm
20:20 23.2 °C 13.9 °C 1013.8 hPa WSW 5.3 km/h 5.3 km/h 56 % 0.0 mm
20:25 23.2 °C 13.9 °C 1013.8 hPa SW 6.1 km/h 6.1 km/h 56 % 0.0 mm
20:31 23.0 °C 14.0 °C 1013.8 hPa WSW 5.6 km/h 5.6 km/h 57 % 0.0 mm
20:36 23.0 °C 14.0 °C 1013.8 hPa SW 5.8 km/h 5.8 km/h 57 % 0.0 mm
20:41 22.8 °C 13.8 °C 1014.8 hPa SW 5.6 km/h 5.6 km/h 57 % 0.0 mm
20:46 22.7 °C 13.7 °C 1014.8 hPa WSW 4.2 km/h   57 % 0.0 mm
20:51 22.7 °C 13.7 °C 1014.8 hPa SW 9.3 km/h 9.3 km/h 57 % 0.0 mm
20:56 22.5 °C 13.6 °C 1014.8 hPa SW 3.7 km/h 3.9 km/h 57 % 0.0 mm
21:01 22.5 °C 13.6 °C 1014.8 hPa WSW 5.6 km/h 5.6 km/h 57 % 0.0 mm
21:06 22.4 °C 13.4 °C 1014.8 hPa West 4.7 km/h 4.7 km/h 57 % 0.0 mm
21:11 22.3 °C 13.4 °C 1014.8 hPa SW 3.9 km/h 3.9 km/h 57 % 0.0 mm
21:16 22.2 °C 13.3 °C 1014.8 hPa SW 3.7 km/h 3.7 km/h 57 % 0.0 mm
21:21 22.1 °C 13.2 °C 1014.8 hPa WSW 5.6 km/h 5.6 km/h 57 % 0.0 mm
21:26 22.0 °C 13.3 °C 1014.8 hPa West 3.7 km/h 3.7 km/h 58 % 0.0 mm
21:31 21.9 °C 13.5 °C 1014.8 hPa SW 5.6 km/h 5.6 km/h 59 % 0.0 mm
21:36 21.8 °C 13.4 °C 1014.8 hPa WSW 3.7 km/h 3.7 km/h 59 % 0.0 mm
21:41 21.7 °C 13.3 °C 1015.8 hPa West 3.7 km/h 3.7 km/h 59 % 0.0 mm
21:46 21.6 °C 13.2 °C 1015.8 hPa West 5.6 km/h 5.6 km/h 59 % 0.0 mm
21:51 21.5 °C 13.2 °C 1015.8 hPa WSW 3.7 km/h 3.9 km/h 59 % 0.0 mm
21:56 21.4 °C 13.3 °C 1015.8 hPa SW 3.7 km/h 3.7 km/h 60 % 0.0 mm
22:01 21.2 °C 13.1 °C 1015.8 hPa SW 3.7 km/h 3.7 km/h 60 % 0.0 mm
22:06 21.0 °C 12.9 °C 1015.8 hPa SW 3.7 km/h 3.7 km/h 60 % 0.0 mm
22:11 21.0 °C 13.2 °C 1015.8 hPa WSW 3.7 km/h 3.7 km/h 61 % 0.0 mm
22:16 20.9 °C 13.1 °C 1015.8 hPa SW 5.6 km/h 5.6 km/h 61 % 0.0 mm
22:21 20.8 °C 13.3 °C 1015.8 hPa WSW 1.9 km/h 1.9 km/h 62 % 0.0 mm
22:26 20.7 °C 13.2 °C 1015.8 hPa WSW 2.3 km/h 2.6 km/h 62 % 0.0 mm
22:31 20.7 °C 13.2 °C 1015.8 hPa West 3.2 km/h 3.2 km/h 62 % 0.0 mm
22:36 20.6 °C 13.1 °C 1015.8 hPa SW 3.9 km/h 3.9 km/h 62 % 0.0 mm
22:41 20.6 °C 13.1 °C 1014.8 hPa SW 3.7 km/h 3.7 km/h 62 % 0.0 mm
22:46 20.5 °C 12.9 °C 1014.8 hPa WSW 3.7 km/h 3.7 km/h 62 % 0.0 mm
22:51 20.4 °C 13.1 °C 1014.8 hPa Calm     63 % 0.0 mm
22:56 20.3 °C 13.0 °C 1015.8 hPa Calm     63 % 0.0 mm
23:01 20.2 °C 12.9 °C 1015.8 hPa Calm     63 % 0.0 mm
23:06 20.2 °C 12.9 °C 1015.8 hPa WSW 1.9 km/h   63 % 0.0 mm
23:11 20.1 °C 12.8 °C 1014.8 hPa Calm     63 % 0.0 mm
23:16 20.1 °C 12.8 °C 1014.8 hPa Calm     63 % 0.0 mm
23:21 20.0 °C 12.7 °C 1014.8 hPa Calm     63 % 0.0 mm
23:26 20.0 °C 12.7 °C 1015.8 hPa WSW 1.9 km/h   63 % 0.0 mm
23:31 20.0 °C 12.7 °C 1015.8 hPa WSW 1.9 km/h 1.9 km/h 63 % 0.0 mm
23:36 20.0 °C 12.7 °C 1015.8 hPa WSW 3.9 km/h 3.9 km/h 63 % 0.0 mm
23:41 20.0 °C 13.0 °C 1015.8 hPa WSW 1.9 km/h   64 % 0.0 mm
23:46 20.0 °C 13.0 °C 1015.8 hPa WSW 1.9 km/h   64 % 0.0 mm
23:51 20.0 °C 13.0 °C 1015.8 hPa WSW 1.9 km/h 1.9 km/h 64 % 0.0 mm
23:56 19.9 °C 13.1 °C 1014.8 hPa WSW 1.9 km/h 2.3 km/h 65 % 0.0 mm
Meteo Sesrovires
Elogis d' Weather Underground - 3.5 mb

Guio original per  Jim McMurry - jmcmurry@mwt.net Adaptat per a la plantilla per  Wim van der Kuil - Leuven-Template.eu

Trobareu la nostra informacio del temps tambe a:

Weather Underground

AWEKAS